createdAt,value
2019-03-10T00:03:38.834Z,1.50
2019-03-10T00:08:42.158Z,1.02
2019-03-10T00:13:45.919Z,0.88
2019-03-10T00:18:49.872Z,2.72
2019-03-10T00:23:55.227Z,2.10
2019-03-10T00:28:58.594Z,4.03
2019-03-10T00:34:02.985Z,2.08
2019-03-10T00:39:42.481Z,1.60
2019-03-10T00:45:33.831Z,2.95
2019-03-10T00:51:28.063Z,3.27
2019-03-10T00:56:33.244Z,1.52
2019-03-10T01:01:37.446Z,2.27
2019-03-10T01:06:41.033Z,2.65
2019-03-10T01:11:45.314Z,1.60
2019-03-10T01:16:48.952Z,1.42
2019-03-10T01:21:53.513Z,1.10
2019-03-10T01:26:57.101Z,1.07
2019-03-10T01:32:43.103Z,0.93
2019-03-10T01:37:46.801Z,1.32
2019-03-10T01:42:50.279Z,1.85
2019-03-10T01:47:54.133Z,1.40
2019-03-10T01:52:57.925Z,1.10
2019-03-10T01:58:01.550Z,1.12
2019-03-10T02:03:04.888Z,1.72
2019-03-10T02:08:08.928Z,1.47
2019-03-10T02:13:12.885Z,0.78
2019-03-10T02:18:17.254Z,0.93
2019-03-10T02:23:21.009Z,1.10
2019-03-10T02:28:24.730Z,0.88
2019-03-10T02:33:28.592Z,1.17
2019-03-10T02:38:31.920Z,1.32
2019-03-10T02:43:35.266Z,0.90
2019-03-10T02:48:39.783Z,0.90
2019-03-10T02:53:43.291Z,0.60
2019-03-10T02:58:46.990Z,0.62
2019-03-10T03:03:50.815Z,0.90
2019-03-10T03:08:54.586Z,0.78
2019-03-10T03:13:58.509Z,0.72
2019-03-10T03:19:02.332Z,0.88
2019-03-10T03:24:05.779Z,0.80
2019-03-10T03:29:09.155Z,0.78
2019-03-10T03:34:13.379Z,0.95
2019-03-10T03:39:48.381Z,0.72
2019-03-10T03:44:51.766Z,0.78
2019-03-10T03:49:55.123Z,0.78
2019-03-10T03:54:58.459Z,1.45
2019-03-10T04:00:03.127Z,1.17
2019-03-10T04:05:07.995Z,1.10
2019-03-10T04:10:11.317Z,1.25
2019-03-10T04:15:17.447Z,0.78
2019-03-10T04:20:33.549Z,1.10
2019-03-10T04:25:37.088Z,1.35
2019-03-10T04:30:42.256Z,1.17
2019-03-10T04:35:47.846Z,0.65
2019-03-10T04:40:51.639Z,1.42
2019-03-10T04:45:54.960Z,1.57
2019-03-10T04:50:58.341Z,0.95
2019-03-10T04:56:11.712Z,0.98
2019-03-10T05:01:15.766Z,0.88
2019-03-10T05:06:19.778Z,1.10
2019-03-10T05:11:23.093Z,1.10
2019-03-10T05:16:27.213Z,1.57
2019-03-10T05:21:30.436Z,1.00
2019-03-10T05:26:33.753Z,0.90
2019-03-10T05:31:37.105Z,1.37
2019-03-10T05:36:40.520Z,1.45
2019-03-10T05:41:44.669Z,0.95
2019-03-10T05:46:48.718Z,1.47
2019-03-10T05:51:52.706Z,0.65
2019-03-10T05:56:56.189Z,0.60
2019-03-10T06:02:01.012Z,1.42
2019-03-10T06:07:04.407Z,1.12
2019-03-10T06:12:08.003Z,1.25
2019-03-10T06:17:11.438Z,2.02
2019-03-10T06:22:14.927Z,1.50
2019-03-10T06:27:18.274Z,1.20
2019-03-10T06:32:22.300Z,1.05
2019-03-10T06:37:26.007Z,1.45
2019-03-10T06:42:30.270Z,1.30
2019-03-10T06:47:35.091Z,1.40
2019-03-10T06:52:38.431Z,1.25
2019-03-10T06:57:42.462Z,1.25
2019-03-10T07:02:46.766Z,0.82
2019-03-10T07:07:50.121Z,1.05
2019-03-10T07:12:54.234Z,2.10
2019-03-10T07:17:57.962Z,1.20
2019-03-10T07:23:03.444Z,1.02
2019-03-10T07:28:24.949Z,1.12
2019-03-10T07:33:46.836Z,1.37
2019-03-10T07:38:56.070Z,0.90
2019-03-10T07:44:07.754Z,1.32
2019-03-10T07:49:31.062Z,0.95
2019-03-10T07:54:56.723Z,0.75
2019-03-10T08:00:19.242Z,0.68
2019-03-10T08:05:36.033Z,1.20
2019-03-10T08:10:57.463Z,1.52
2019-03-10T08:16:18.874Z,0.85
2019-03-10T08:21:41.537Z,1.47
2019-03-10T08:27:13.177Z,1.80
2019-03-10T08:32:42.130Z,1.98
2019-03-10T08:38:20.151Z,1.12
2019-03-10T08:49:11.978Z,1.70
2019-03-10T08:54:24.083Z,1.50
2019-03-10T08:59:45.582Z,1.62
2019-03-10T09:05:06.965Z,1.35
2019-03-10T09:10:31.618Z,1.17
2019-03-10T09:15:50.771Z,1.72
2019-03-10T09:21:03.365Z,1.37
2019-03-10T09:26:25.031Z,2.60
2019-03-10T09:31:46.332Z,2.37
2019-03-10T09:37:08.057Z,1.80
2019-03-10T09:42:26.551Z,2.80
2019-03-10T09:47:41.275Z,1.22
2019-03-10T09:53:22.162Z,1.55
2019-03-10T09:58:45.252Z,2.90
2019-03-10T10:04:11.246Z,0.93
2019-03-10T10:09:45.904Z,2.47
2019-03-10T10:15:15.093Z,1.62
2019-03-10T10:20:30.825Z,2.45
2019-03-10T10:25:47.753Z,1.45
2019-03-10T10:31:13.179Z,1.60
2019-03-10T10:36:38.499Z,1.07
2019-03-10T10:41:54.455Z,1.20
2019-03-10T10:47:26.748Z,1.32
2019-03-10T10:52:39.443Z,1.62
2019-03-10T10:57:58.235Z,2.60
2019-03-10T11:03:22.022Z,2.08
2019-03-10T11:08:50.892Z,1.55
2019-03-10T11:14:06.910Z,1.77
2019-03-10T11:19:18.315Z,0.95
2019-03-10T11:24:27.773Z,0.95
2019-03-10T11:29:37.943Z,1.42
2019-03-10T11:34:52.936Z,0.82
2019-03-10T11:40:05.859Z,0.95
2019-03-10T11:45:34.792Z,0.95
2019-03-10T11:50:58.803Z,1.05
2019-03-10T11:56:20.092Z,1.52
2019-03-10T12:01:41.468Z,1.52
2019-03-10T12:07:03.449Z,1.55
2019-03-10T12:12:07.021Z,1.00
2019-03-10T12:17:10.711Z,2.33
2019-03-10T12:22:14.417Z,1.25
2019-03-10T12:27:17.750Z,1.70
2019-03-10T12:32:21.485Z,1.82
2019-03-10T12:37:24.864Z,1.75
2019-03-10T12:42:28.909Z,0.80
2019-03-10T12:47:32.296Z,1.60
2019-03-10T12:52:35.708Z,1.50
2019-03-10T12:57:42.066Z,1.05
2019-03-10T13:02:46.325Z,1.52
2019-03-10T13:07:50.319Z,2.20
2019-03-10T13:12:53.885Z,2.02
2019-03-10T13:17:57.450Z,1.40
2019-03-10T13:23:01.267Z,1.70
2019-03-10T13:28:04.689Z,2.12
2019-03-10T13:33:08.477Z,2.25
2019-03-10T13:38:12.040Z,3.60
2019-03-10T13:43:15.998Z,4.60
2019-03-10T13:48:21.179Z,3.77
2019-03-10T13:53:25.539Z,4.30
2019-03-10T13:58:30.101Z,4.78
2019-03-10T14:03:33.432Z,5.03
2019-03-10T14:08:36.625Z,5.15
2019-03-10T14:13:39.937Z,6.80
2019-03-10T14:18:43.950Z,6.55
2019-03-10T14:23:49.091Z,4.92
2019-03-10T14:28:52.460Z,5.50
2019-03-10T14:33:57.166Z,4.08
2019-03-10T14:39:01.704Z,3.00
2019-03-10T14:44:06.726Z,2.10
2019-03-10T14:49:10.386Z,2.98
2019-03-10T14:54:19.896Z,3.50
2019-03-10T14:59:23.388Z,2.15
2019-03-10T15:04:26.667Z,4.62
2019-03-10T15:09:31.544Z,5.62
2019-03-10T15:14:35.275Z,5.05
2019-03-10T15:19:39.550Z,6.37
2019-03-10T15:24:43.358Z,6.75
2019-03-10T15:29:47.076Z,6.58
2019-03-10T15:34:52.377Z,6.85
2019-03-10T15:39:56.374Z,5.33
2019-03-10T15:45:00.308Z,7.65
2019-03-10T15:50:08.153Z,8.55
2019-03-10T15:55:11.453Z,7.78
2019-03-10T16:00:16.759Z,8.23
2019-03-10T16:05:22.892Z,10.72
2019-03-10T16:10:26.872Z,9.88
2019-03-10T16:15:31.081Z,10.90
2019-03-10T16:20:34.654Z,12.30
2019-03-10T16:25:37.964Z,12.05
2019-03-10T16:30:41.272Z,11.83
2019-03-10T16:35:44.639Z,11.33
2019-03-10T16:40:48.497Z,12.33
2019-03-10T16:45:54.138Z,11.00
2019-03-10T16:50:57.485Z,11.48
2019-03-10T16:56:03.067Z,9.93
2019-03-10T17:01:07.394Z,11.00
2019-03-10T17:06:11.863Z,11.00
2019-03-10T17:11:15.205Z,15.53
2019-03-10T17:16:20.078Z,16.30
2019-03-10T17:21:23.409Z,15.60
2019-03-10T17:26:26.728Z,16.12
2019-03-10T17:31:30.434Z,18.10
2019-03-10T17:36:33.767Z,20.40
2019-03-10T17:41:37.103Z,20.08
2019-03-10T17:46:41.661Z,21.73
2019-03-10T17:51:45.963Z,19.35
2019-03-10T17:56:49.320Z,17.37
2019-03-10T18:01:52.647Z,16.50
2019-03-10T18:06:55.984Z,17.95
2019-03-10T18:12:00.383Z,20.48
2019-03-10T18:17:05.007Z,22.73
2019-03-10T18:22:08.446Z,24.12
2019-03-10T18:27:13.128Z,23.50
2019-03-10T18:32:17.183Z,23.75
2019-03-10T18:37:21.239Z,22.60
2019-03-10T18:42:25.240Z,24.65
2019-03-10T18:47:28.798Z,25.25
2019-03-10T18:52:33.833Z,27.07
2019-03-10T18:57:37.609Z,27.32
2019-03-10T19:02:41.023Z,26.65
2019-03-10T19:07:46.968Z,27.87
2019-03-10T19:12:50.420Z,29.37
2019-03-10T19:17:56.000Z,30.35
2019-03-10T19:22:59.914Z,26.37
2019-03-10T19:28:05.614Z,27.55
2019-03-10T19:33:09.347Z,28.77
2019-03-10T19:38:12.649Z,26.85
2019-03-10T19:43:16.761Z,30.23
2019-03-10T19:48:20.241Z,27.55
2019-03-10T19:53:23.549Z,26.73
2019-03-10T19:58:26.865Z,26.07
2019-03-10T20:03:30.731Z,25.70
2019-03-10T20:08:34.099Z,24.85
2019-03-10T20:13:38.255Z,21.70
2019-03-10T20:18:41.919Z,19.87
2019-03-10T20:23:45.268Z,19.57
2019-03-10T20:28:48.703Z,21.60
2019-03-10T20:33:52.627Z,23.65
2019-03-10T20:38:56.495Z,24.77
2019-03-10T20:44:00.166Z,27.45
2019-03-10T20:49:03.564Z,33.15
2019-03-10T20:54:08.021Z,32.30
2019-03-10T20:59:11.831Z,32.98
2019-03-10T21:04:15.133Z,33.45
2019-03-10T21:09:19.115Z,34.90
2019-03-10T21:14:22.554Z,36.53
2019-03-10T21:19:26.219Z,36.65
2019-03-10T21:24:29.752Z,38.65
2019-03-10T21:29:33.461Z,38.67
2019-03-10T21:34:36.878Z,38.33
2019-03-10T21:39:40.209Z,32.83
2019-03-10T21:44:51.010Z,22.00
2019-03-10T21:49:54.468Z,20.92
2019-03-10T21:54:57.937Z,17.62
2019-03-10T22:00:01.323Z,11.10
2019-03-10T22:05:04.654Z,13.80
2019-03-10T22:10:09.802Z,5.78
2019-03-10T22:15:15.541Z,4.22
2019-03-10T22:20:19.220Z,5.55
2019-03-10T22:25:22.873Z,5.45
2019-03-10T22:30:26.232Z,6.95
2019-03-10T22:35:29.559Z,3.20
2019-03-10T22:40:33.139Z,1.60
2019-03-10T22:45:37.145Z,2.27
2019-03-10T22:50:40.566Z,2.62
2019-03-10T22:55:44.357Z,1.57
2019-03-10T23:00:54.405Z,2.72
2019-03-10T23:05:57.639Z,1.30
2019-03-10T23:11:01.205Z,1.07
2019-03-10T23:16:05.411Z,1.12
2019-03-10T23:21:18.412Z,0.60
2019-03-10T23:26:26.187Z,0.85
2019-03-10T23:31:29.762Z,0.75
2019-03-10T23:36:34.906Z,0.70
2019-03-10T23:41:38.556Z,0.50
2019-03-10T23:46:42.412Z,1.17
2019-03-10T23:51:45.756Z,2.80
2019-03-10T23:56:49.095Z,2.58
